Time;durP1;ratioP1;P1;durP2;ratioP2;P2;SDS_P1;SDS_P2;PMS_P1;PMS_P2;Temp;Humidity;BMP_temperature;BMP_pressure;BME280_temperature;BME280_humidity;BME280_pressure;Samples;Min_cycle;Max_cycle;Signal;HPM_P1;HPM_P2
2022/05/06 00:01:43;;;;;;;29.65;15.48;;;;;;;;;;5139107;27;20079;-88
2022/05/06 00:04:30;;;;;;;27.17;15.27;;;;;;;;;;5138985;27;20080;-88
2022/05/06 00:07:15;;;;;;;28.20;16.02;;;;;;;;;;5139416;27;20034;-88
2022/05/06 00:10:01;;;;;;;26.33;15.77;;;;;;;;;;5139401;27;20037;-88
2022/05/06 00:12:48;;;;;;;28.10;16.52;;;;;;;;;;5125502;27;20041;-88
2022/05/06 00:15:33;;;;;;;31.05;15.93;;;;;;;;;;5138816;27;20041;-89
2022/05/06 00:18:18;;;;;;;27.13;16.17;;;;;;;;;;5139248;27;20117;-89
2022/05/06 00:21:03;;;;;;;27.63;16.08;;;;;;;;;;5139108;27;20037;-88
2022/05/06 00:23:48;;;;;;;26.00;15.43;;;;;;;;;;5139309;27;20086;-88
2022/05/06 00:26:33;;;;;;;21.02;14.20;;;;;;;;;;5138403;27;20087;-89
2022/05/06 00:29:17;;;;;;;24.38;15.13;;;;;;;;;;5124685;27;20054;-89
2022/05/06 00:32:02;;;;;;;24.67;15.60;;;;;;;;;;5139004;27;20509;-89
2022/05/06 00:34:46;;;;;;;25.67;15.75;;;;;;;;;;5138515;27;20061;-89
2022/05/06 00:37:31;;;;;;;28.58;16.45;;;;;;;;;;5138498;27;20422;-89
2022/05/06 00:40:16;;;;;;;28.10;16.00;;;;;;;;;;5138895;27;20049;-89
2022/05/06 00:43:01;;;;;;;31.73;17.63;;;;;;;;;;5138916;27;20049;-89
2022/05/06 00:45:52;;;;;;;27.90;15.85;;;;;;;;;;5138385;27;20461;-88
2022/05/06 00:48:37;;;;;;;29.08;16.85;;;;;;;;;;5138374;27;20041;-88
2022/05/06 00:51:22;;;;;;;27.90;15.75;;;;;;;;;;5138702;27;20045;-88
2022/05/06 00:54:07;;;;;;;26.27;15.40;;;;;;;;;;5138807;27;20042;-89
2022/05/06 00:56:53;;;;;;;30.65;17.08;;;;;;;;;;5138983;27;20041;-88
2022/05/06 01:02:46;;;;;;;21.70;14.25;;;;;;;;;;5153880;27;20115;-88
2022/05/06 01:05:33;;;;;;;25.17;15.82;;;;;;;;;;5138293;27;20489;-89
2022/05/06 01:08:20;;;;;;;24.77;15.70;;;;;;;;;;5138842;27;20394;-87
2022/05/06 01:11:06;;;;;;;25.73;16.42;;;;;;;;;;5124458;27;20033;-88
2022/05/06 01:13:58;;;;;;;24.67;14.75;;;;;;;;;;5138250;27;20077;-88
2022/05/06 01:16:43;;;;;;;24.00;15.10;;;;;;;;;;5153684;27;20065;-88
2022/05/06 01:19:29;;;;;;;28.77;15.98;;;;;;;;;;5154110;27;20080;-88
2022/05/06 01:22:20;;;;;;;29.55;17.00;;;;;;;;;;5138578;27;20079;-89
2022/05/06 01:25:05;;;;;;;25.58;15.15;;;;;;;;;;5138517;27;20095;-88
2022/05/06 01:27:55;;;;;;;27.70;16.13;;;;;;;;;;5137787;27;20070;-88
2022/05/06 01:30:42;;;;;;;29.92;16.08;;;;;;;;;;5137983;27;20063;-88
2022/05/06 01:33:27;;;;;;;28.85;16.35;;;;;;;;;;5138388;27;20453;-89
2022/05/06 01:36:12;;;;;;;24.38;14.13;;;;;;;;;;5138264;27;20055;-88
2022/05/06 01:39:00;;;;;;;25.98;14.55;;;;;;;;;;5140029;27;20127;-88
2022/05/06 01:41:48;;;;;;;24.15;14.55;;;;;;;;;;5141872;27;20029;-88
2022/05/06 01:44:44;;;;;;;28.00;16.45;;;;;;;;;;5141694;27;20042;-88
2022/05/06 01:47:31;;;;;;;26.70;15.43;;;;;;;;;;5142000;27;20486;-89
2022/05/06 01:50:17;;;;;;;27.42;16.13;;;;;;;;;;5141933;27;20037;-88
2022/05/06 01:53:02;;;;;;;23.05;14.85;;;;;;;;;;5141935;27;20041;-88
2022/05/06 01:55:47;;;;;;;22.83;15.02;;;;;;;;;;5141556;27;20183;-88
2022/05/06 01:58:31;;;;;;;28.00;14.82;;;;;;;;;;5157593;27;20079;-88
2022/05/06 02:01:16;;;;;;;24.02;14.52;;;;;;;;;;5127486;27;20080;-88
2022/05/06 02:07:05;;;;;;;28.70;16.00;;;;;;;;;;5157367;27;20086;-88
2022/05/06 02:09:49;;;;;;;31.00;16.30;;;;;;;;;;5141186;27;20038;-87
2022/05/06 02:12:34;;;;;;;28.33;15.95;;;;;;;;;;5141640;27;20073;-88
2022/05/06 02:15:19;;;;;;;28.98;16.73;;;;;;;;;;5140711;27;20083;-89
2022/05/06 02:18:12;;;;;;;33.67;17.65;;;;;;;;;;5141407;27;20041;-88
2022/05/06 02:21:02;;;;;;;30.67;17.48;;;;;;;;;;5126449;27;20501;-88
2022/05/06 02:23:47;;;;;;;29.00;18.17;;;;;;;;;;5140868;27;20509;-88
2022/05/06 02:26:32;;;;;;;27.95;17.13;;;;;;;;;;5156901;27;20075;-88
2022/05/06 02:29:17;;;;;;;33.20;16.38;;;;;;;;;;5141204;27;20042;-89
2022/05/06 02:35:15;;;;;;;29.35;16.35;;;;;;;;;;5093214;27;20038;-88
2022/05/06 02:38:05;;;;;;;28.95;17.27;;;;;;;;;;5140657;27;20041;-88
2022/05/06 02:40:53;;;;;;;28.13;17.65;;;;;;;;;;5140529;27;20394;-88
2022/05/06 02:43:38;;;;;;;31.88;16.90;;;;;;;;;;5140878;27;20470;-89
2022/05/06 02:46:24;;;;;;;27.77;18.02;;;;;;;;;;5140929;27;20126;-88
2022/05/06 02:49:12;;;;;;;29.88;17.13;;;;;;;;;;5140768;27;20162;-87
2022/05/06 02:51:57;;;;;;;27.48;15.68;;;;;;;;;;5139995;27;20038;-88
2022/05/06 02:54:42;;;;;;;29.85;18.58;;;;;;;;;;5140339;27;20090;-88
2022/05/06 02:57:27;;;;;;;27.95;16.77;;;;;;;;;;5140615;27;20037;-88
2022/05/06 03:00:12;;;;;;;29.45;17.27;;;;;;;;;;5156432;27;20187;-88
2022/05/06 03:02:57;;;;;;;31.75;18.23;;;;;;;;;;5140125;27;20041;-88
2022/05/06 03:05:41;;;;;;;27.90;16.42;;;;;;;;;;5140462;27;20056;-88
2022/05/06 03:08:26;;;;;;;30.02;16.02;;;;;;;;;;5140443;27;20034;-88
2022/05/06 03:11:11;;;;;;;25.98;15.38;;;;;;;;;;5140581;27;20029;-88
2022/05/06 03:13:56;;;;;;;29.95;17.45;;;;;;;;;;5125705;27;20045;-88
2022/05/06 03:16:43;;;;;;;30.90;18.17;;;;;;;;;;5140346;27;20075;-89
2022/05/06 03:19:28;;;;;;;29.70;16.42;;;;;;;;;;5125948;27;20139;-89
2022/05/06 03:22:36;;;;;;;29.27;17.73;;;;;;;;;;5140286;27;20038;-88
2022/05/06 03:25:21;;;;;;;34.65;17.83;;;;;;;;;;5140433;27;20099;-89
2022/05/06 03:28:09;;;;;;;29.58;17.60;;;;;;;;;;5155193;27;20138;-88
2022/05/06 03:30:55;;;;;;;33.83;18.08;;;;;;;;;;5139516;27;20042;-88
2022/05/06 03:33:43;;;;;;;35.53;18.70;;;;;;;;;;5125618;27;20037;-89
2022/05/06 03:36:28;;;;;;;31.00;18.17;;;;;;;;;;5139867;27;20034;-88
2022/05/06 03:39:13;;;;;;;31.05;17.17;;;;;;;;;;5140049;27;20086;-88
2022/05/06 03:41:57;;;;;;;29.65;18.80;;;;;;;;;;5139410;27;20037;-88
2022/05/06 03:44:42;;;;;;;29.17;17.35;;;;;;;;;;5139575;27;20095;-88
2022/05/06 03:47:27;;;;;;;29.20;17.92;;;;;;;;;;5139722;27;20493;-88
2022/05/06 03:53:16;;;;;;;34.58;21.20;;;;;;;;;;5155161;27;20045;-88
2022/05/06 03:56:01;;;;;;;225.27;34.45;;;;;;;;;;5139172;27;20034;-88
2022/05/06 03:58:46;;;;;;;92.63;26.45;;;;;;;;;;5155132;27;20450;-88
2022/05/06 04:01:31;;;;;;;145.18;32.45;;;;;;;;;;5139468;27;20033;-90
2022/05/06 04:04:16;;;;;;;56.00;25.95;;;;;;;;;;5139268;27;20451;-88
2022/05/06 04:07:03;;;;;;;161.50;33.65;;;;;;;;;;5154766;27;20394;-89
2022/05/06 04:09:51;;;;;;;135.38;29.67;;;;;;;;;;5139177;27;20038;-89
2022/05/06 04:12:36;;;;;;;77.57;22.52;;;;;;;;;;5139352;27;20074;-88
2022/05/06 04:15:21;;;;;;;112.43;23.15;;;;;;;;;;5139223;27;20041;-88
2022/05/06 04:18:05;;;;;;;308.08;35.20;;;;;;;;;;5154505;27;20087;-89
2022/05/06 04:23:53;;;;;;;225.02;27.50;;;;;;;;;;5154370;27;20440;-89
2022/05/06 04:26:40;;;;;;;238.07;28.05;;;;;;;;;;5138950;27;20033;-89
2022/05/06 04:29:27;;;;;;;371.98;32.80;;;;;;;;;;5138916;27;20463;-89
2022/05/06 04:32:12;;;;;;;332.63;29.13;;;;;;;;;;5138390;27;20073;-89
2022/05/06 04:34:57;;;;;;;342.77;36.00;;;;;;;;;;5138772;27;20079;-89
2022/05/06 04:37:43;;;;;;;187.25;21.17;;;;;;;;;;5139001;27;20052;-89
2022/05/06 04:40:28;;;;;;;195.57;24.38;;;;;;;;;;5154479;27;20057;-89
2022/05/06 04:43:12;;;;;;;110.50;20.73;;;;;;;;;;5154106;27;20511;-88
2022/05/06 04:45:57;;;;;;;128.68;20.63;;;;;;;;;;5138818;27;20091;-89
2022/05/06 04:48:44;;;;;;;540.05;44.95;;;;;;;;;;5139001;27;20042;-88
2022/05/06 04:51:29;;;;;;;530.65;41.15;;;;;;;;;;5138765;27;20038;-89
2022/05/06 04:54:21;;;;;;;430.73;38.28;;;;;;;;;;5138468;27;20045;-89
2022/05/06 04:57:06;;;;;;;387.95;36.63;;;;;;;;;;5123860;27;20037;-89
2022/05/06 04:59:50;;;;;;;407.20;37.03;;;;;;;;;;5138524;27;20514;-88
2022/05/06 05:02:38;;;;;;;322.90;31.52;;;;;;;;;;5154338;27;20106;-88
2022/05/06 05:05:24;;;;;;;453.80;38.20;;;;;;;;;;5139187;27;20038;-89
2022/05/06 05:08:09;;;;;;;280.83;29.35;;;;;;;;;;5138370;27;20094;-88
2022/05/06 05:10:54;;;;;;;480.98;40.70;;;;;;;;;;5138475;27;20486;-88
2022/05/06 05:13:49;;;;;;;374.60;35.35;;;;;;;;;;5140212;27;20099;-89
2022/05/06 05:16:34;;;;;;;444.33;40.88;;;;;;;;;;5142959;27;20080;-89
2022/05/06 05:19:21;;;;;;;526.20;46.25;;;;;;;;;;5142145;27;20197;-88
2022/05/06 05:22:18;;;;;;;409.02;38.22;;;;;;;;;;5158018;27;20073;-89
2022/05/06 05:25:07;;;;;;;384.95;35.33;;;;;;;;;;5142117;27;20108;-89
2022/05/06 05:27:52;;;;;;;298.38;32.92;;;;;;;;;;5142072;27;20058;-89
2022/05/06 05:30:41;;;;;;;181.57;27.58;;;;;;;;;;5157911;27;20166;-89
2022/05/06 05:33:29;;;;;;;217.73;29.90;;;;;;;;;;5142158;27;20057;-89
2022/05/06 05:36:17;;;;;;;290.30;34.33;;;;;;;;;;5141930;27;20038;-88
2022/05/06 05:39:02;;;;;;;192.57;30.50;;;;;;;;;;5142096;27;20102;-89
2022/05/06 05:41:46;;;;;;;319.95;39.97;;;;;;;;;;5142025;27;20034;-89
2022/05/06 05:50:38;;;;;;;337.35;41.15;;;;;;;;;;5145021;27;20083;-88
2022/05/06 05:53:26;;;;;;;90.30;27.10;;;;;;;;;;5157145;27;20087;-88
2022/05/06 05:56:13;;;;;;;174.02;33.78;;;;;;;;;;5141432;27;20061;-88
2022/05/06 05:59:00;;;;;;;237.43;36.53;;;;;;;;;;5157651;27;20030;-88
2022/05/06 06:01:45;;;;;;;177.15;32.40;;;;;;;;;;5127147;27;20038;-88
2022/05/06 06:04:30;;;;;;;158.05;30.80;;;;;;;;;;5141566;27;20081;-89
2022/05/06 06:07:22;;;;;;;124.22;30.27;;;;;;;;;;5126963;27;20045;-88
2022/05/06 06:10:07;;;;;;;206.60;33.35;;;;;;;;;;5141315;27;20084;-89
2022/05/06 06:12:56;;;;;;;159.10;29.10;;;;;;;;;;5141321;27;20083;-88
2022/05/06 06:15:44;;;;;;;138.65;28.45;;;;;;;;;;5141466;27;20104;-89
2022/05/06 06:18:29;;;;;;;177.70;29.13;;;;;;;;;;5141034;27;20382;-89
2022/05/06 06:21:13;;;;;;;123.22;27.85;;;;;;;;;;5140887;27;20038;-89
2022/05/06 06:23:58;;;;;;;127.60;27.77;;;;;;;;;;5156985;27;20042;-88
2022/05/06 06:26:48;;;;;;;199.63;30.83;;;;;;;;;;5140354;27;20041;-89
2022/05/06 06:29:35;;;;;;;171.30;31.70;;;;;;;;;;5157283;27;20501;-88
2022/05/06 06:32:20;;;;;;;163.13;31.65;;;;;;;;;;5140780;27;20041;-89
2022/05/06 06:35:05;;;;;;;103.25;27.20;;;;;;;;;;5141170;27;20079;-89
2022/05/06 06:37:50;;;;;;;118.43;31.52;;;;;;;;;;5141021;27;20083;-89
2022/05/06 06:40:37;;;;;;;133.57;32.28;;;;;;;;;;5126467;27;20136;-89
2022/05/06 06:43:24;;;;;;;113.82;32.63;;;;;;;;;;5140329;27;20050;-90
2022/05/06 06:46:09;;;;;;;86.13;29.08;;;;;;;;;;5156597;27;20033;-89
2022/05/06 06:48:54;;;;;;;125.45;34.33;;;;;;;;;;5140891;27;20030;-89
2022/05/06 06:51:38;;;;;;;100.22;32.25;;;;;;;;;;5140749;27;20117;-89
2022/05/06 06:54:23;;;;;;;95.35;32.92;;;;;;;;;;5140314;27;20037;-88
2022/05/06 06:57:16;;;;;;;73.32;31.50;;;;;;;;;;5140600;27;20042;-88
2022/05/06 07:00:01;;;;;;;105.07;35.58;;;;;;;;;;5140658;27;20045;-89
2022/05/06 07:02:46;;;;;;;99.05;35.08;;;;;;;;;;5140391;27;20050;-88
2022/05/06 07:05:33;;;;;;;86.65;33.25;;;;;;;;;;5140047;27;20115;-88
2022/05/06 07:14:29;;;;;;;67.33;28.80;;;;;;;;;;5155564;27;20042;-89
2022/05/06 07:17:14;;;;;;;61.90;29.75;;;;;;;;;;5125879;27;20041;-90
2022/05/06 07:19:58;;;;;;;75.85;31.45;;;;;;;;;;5140560;27;20057;-90
2022/05/06 07:22:43;;;;;;;68.45;27.45;;;;;;;;;;5140126;27;20517;-89
2022/05/06 07:25:30;;;;;;;56.28;26.10;;;;;;;;;;5139812;27;20090;-89
2022/05/06 07:28:22;;;;;;;50.95;24.90;;;;;;;;;;5139698;27;20057;-91
2022/05/06 07:31:16;;;;;;;48.20;23.60;;;;;;;;;;5140023;27;20034;-88
2022/05/06 07:34:01;;;;;;;51.25;24.73;;;;;;;;;;5127161;27;20050;-89
2022/05/06 07:36:53;;;;;;;47.28;22.27;;;;;;;;;;5139602;27;20034;-88
2022/05/06 07:39:38;;;;;;;43.63;21.73;;;;;;;;;;5139530;27;20033;-89
2022/05/06 07:42:22;;;;;;;43.72;22.13;;;;;;;;;;5139390;27;20045;-88
2022/05/06 07:45:12;;;;;;;40.85;20.73;;;;;;;;;;5139772;27;20077;-88
2022/05/06 07:47:57;;;;;;;36.15;19.45;;;;;;;;;;5139585;27;20083;-87
2022/05/06 07:50:44;;;;;;;33.58;19.05;;;;;;;;;;5139282;27;20083;-89
2022/05/06 07:53:29;;;;;;;28.88;17.45;;;;;;;;;;5139161;27;20037;-89
2022/05/06 07:56:13;;;;;;;25.92;15.88;;;;;;;;;;5139721;27;20116;-89
2022/05/06 07:58:58;;;;;;;29.92;17.02;;;;;;;;;;5139453;27;20107;-90
2022/05/06 08:04:48;;;;;;;29.02;16.83;;;;;;;;;;5155287;27;20049;-88
2022/05/06 08:07:33;;;;;;;25.60;15.52;;;;;;;;;;5138932;27;20038;-89
2022/05/06 08:10:17;;;;;;;24.33;14.55;;;;;;;;;;5139391;27;20542;-89
2022/05/06 08:13:05;;;;;;;23.38;14.18;;;;;;;;;;5139503;27;20122;-88
2022/05/06 08:15:51;;;;;;;20.70;13.52;;;;;;;;;;5139315;27;20596;-89
2022/05/06 08:18:35;;;;;;;20.15;12.75;;;;;;;;;;5138818;27;20033;-89
2022/05/06 08:21:25;;;;;;;18.15;11.88;;;;;;;;;;5139317;27;20481;-89
2022/05/06 08:24:11;;;;;;;17.65;10.90;;;;;;;;;;5138935;27;20401;-89
2022/05/06 08:26:56;;;;;;;15.00;10.90;;;;;;;;;;5139031;27;20142;-88
2022/05/06 08:29:43;;;;;;;19.60;12.07;;;;;;;;;;5124220;27;20104;-88
2022/05/06 08:32:28;;;;;;;22.35;11.18;;;;;;;;;;5154299;27;20037;-90
2022/05/06 08:35:12;;;;;;;13.80;10.10;;;;;;;;;;5138880;27;20042;-89
2022/05/06 08:37:58;;;;;;;13.43;9.65;;;;;;;;;;5138754;27;20053;-90
2022/05/06 08:40:42;;;;;;;12.15;8.50;;;;;;;;;;5138434;27;20042;-89
2022/05/06 08:43:34;;;;;;;11.35;8.15;;;;;;;;;;5154011;27;20090;-90
2022/05/06 08:52:32;;;;;;;10.65;8.05;;;;;;;;;;5154043;27;20033;-90
2022/05/06 08:55:19;;;;;;;8.65;6.80;;;;;;;;;;5138658;27;20034;-89
2022/05/06 08:58:06;;;;;;;8.45;7.07;;;;;;;;;;5138622;27;20034;-89
2022/05/06 09:00:54;;;;;;;8.68;6.97;;;;;;;;;;5138444;27;20420;-89
2022/05/06 09:03:40;;;;;;;8.40;6.40;;;;;;;;;;5138200;27;20049;-89
2022/05/06 09:06:26;;;;;;;9.35;6.78;;;;;;;;;;5138721;27;20075;-90
2022/05/06 09:09:17;;;;;;;7.75;6.72;;;;;;;;;;5138416;27;20038;-91
2022/05/06 09:18:18;;;;;;;9.20;6.90;;;;;;;;;;5154240;27;20079;-88
2022/05/06 09:21:15;;;;;;;6.10;4.97;;;;;;;;;;5138432;27;20037;-89
2022/05/06 09:24:15;;;;;;;7.47;6.15;;;;;;;;;;5137986;27;20106;-89
2022/05/06 09:27:07;;;;;;;8.57;5.68;;;;;;;;;;5139120;27;20038;-89
2022/05/06 09:29:55;;;;;;;8.13;6.35;;;;;;;;;;5137806;27;20136;-92
2022/05/06 09:32:42;;;;;;;6.38;5.07;;;;;;;;;;5153692;27;20118;-90
2022/05/06 09:35:28;;;;;;;6.88;5.18;;;17.60;99.90;;;;;;5154198;27;20037;-89
2022/05/06 09:38:16;;;;;;;6.43;5.68;;;;;;;;;;5154021;27;20033;-87
2022/05/06 09:41:19;;;;;;;6.85;5.22;;;17.50;99.90;;;;;;5138534;27;20034;-87
2022/05/06 09:44:09;;;;;;;5.90;5.13;;;17.50;99.90;;;;;;5138096;27;20046;-88
2022/05/06 09:47:10;;;;;;;7.35;5.18;;;;;;;;;;5137938;27;20083;-90
2022/05/06 09:49:55;;;;;;;6.38;5.45;;;;;;;;;;5123680;27;20087;-91
2022/05/06 09:52:40;;;;;;;7.97;5.53;;;;;;;;;;5137843;27;20029;-90
2022/05/06 09:55:25;;;;;;;5.97;5.18;;;;;;;;;;5138318;27;20039;-89
2022/05/06 09:58:10;;;;;;;7.20;4.57;;;;;;;;;;5138410;27;20106;-90
2022/05/06 10:00:58;;;;;;;6.15;5.18;;;;;;;;;;5126455;27;20047;-89
2022/05/06 10:03:43;;;;;;;5.95;4.90;;;;;;;;;;5141331;27;20042;-90
2022/05/06 10:06:31;;;;;;;11.32;5.60;;;;;;;;;;5141758;27;20053;-90
2022/05/06 10:09:19;;;;;;;7.03;5.30;;;;;;;;;;5141712;27;20458;-90
2022/05/06 10:12:05;;;;;;;7.13;5.88;;;19.40;99.90;;;;;;5141647;27;20042;-89
2022/05/06 10:14:50;;;;;;;6.95;5.97;;;;;;;;;;5141412;27;20038;-90
2022/05/06 10:17:50;;;;;;;6.57;5.18;;;;;;;;;;5141535;27;20489;-91
2022/05/06 10:23:54;;;;;;;8.00;5.13;;;;;;;;;;5157598;27;20045;-89
2022/05/06 10:26:40;;;;;;;8.05;5.30;;;;;;;;;;5140924;27;20393;-90
2022/05/06 10:33:08;;;;;;;6.03;4.53;;;;;;;;;;5156963;27;20038;-90
2022/05/06 10:35:53;;;;;;;6.38;3.75;;;;;;;;;;5058073;28;20038;-89
2022/05/06 10:38:47;;;;;;;6.22;4.20;;;;;;;;;;5141058;27;20042;-93
2022/05/06 10:41:32;;;;;;;7.28;4.57;;;;;;;;;;5140917;27;20087;-89
2022/05/06 10:44:32;;;;;;;4.78;4.07;;;;;;;;;;5140917;27;20550;-90
2022/05/06 10:47:19;;;;;;;7.30;4.30;;;;;;;;;;5141134;27;20037;-89
2022/05/06 10:50:15;;;;;;;6.70;4.95;;;20.40;97.00;;;;;;5140408;27;20127;-87
2022/05/06 10:53:01;;;;;;;8.02;4.72;;;;;;;;;;5140433;27;20489;-88
2022/05/06 10:55:46;;;;;;;6.70;4.10;;;;;;;;;;5140446;27;20041;-86
2022/05/06 10:58:30;;;;;;;5.30;3.90;;;;;;;;;;5126483;27;20053;-87
2022/05/06 11:01:16;;;;;;;4.60;3.53;;;;;;;;;;5140889;27;20038;-87
2022/05/06 11:04:01;;;;;;;4.85;3.20;;;;;;;;;;5140270;27;20329;-87
2022/05/06 11:06:48;;;;;;;6.03;3.42;;;;;;;;;;5140073;27;20087;-87
2022/05/06 11:09:33;;;;;;;4.47;2.78;;;;;;;;;;5140524;27;20513;-88
2022/05/06 11:12:34;;;;;;;6.30;3.30;;;;;;;;;;5140106;27;20041;-87
2022/05/06 11:15:23;;;;;;;3.47;2.40;;;;;;;;;;5140710;27;20549;-87
2022/05/06 11:18:08;;;;;;;3.35;2.47;;;;;;;;;;5140658;27;20114;-87
2022/05/06 11:20:53;;;;;;;3.75;2.08;;;;;;;;;;5139896;27;20554;-87
2022/05/06 11:23:38;;;;;;;3.05;2.03;;;;;;;;;;5140131;27;20064;-88
2022/05/06 11:26:24;;;;;;;4.53;2.05;;;;;;;;;;5140833;27;20051;-86
2022/05/06 11:29:09;;;;;;;4.57;2.53;;;;;;;;;;5139960;27;20110;-86
2022/05/06 11:31:54;;;;;;;4.65;2.45;;;;;;;;;;5139659;27;20049;-86
2022/05/06 11:34:39;;;;;;;3.35;2.25;;;;;;;;;;5139958;27;20394;-87
2022/05/06 11:37:27;;;;;;;5.38;2.00;;;;;;;;;;5140149;27;20033;-86
2022/05/06 11:43:22;;;;;;;3.45;2.38;;;;;;;;;;5155130;27;20480;-86
2022/05/06 11:49:25;;;;;;;3.83;2.03;;;;;;;;;;5155001;27;20570;-87
2022/05/06 11:52:10;;;;;;;3.35;2.03;;;;;;;;;;5139178;27;20038;-87
2022/05/06 11:54:57;;;;;;;3.80;1.90;;;;;;;;;;5139032;27;20497;-88
2022/05/06 11:57:45;;;;;;;4.75;1.77;;;;;;;;;;5125151;27;20049;-87
2022/05/06 12:00:30;;;;;;;5.57;2.00;;;;;;;;;;5139644;27;20073;-87
2022/05/06 12:03:15;;;;;;;5.78;2.10;;;;;;;;;;5139587;27;20527;-87
2022/05/06 12:06:01;;;;;;;3.88;1.80;;;;;;;;;;5138859;27;20133;-87
2022/05/06 12:08:48;;;;;;;10.88;2.55;;;;;;;;;;5139228;27;20038;-88
2022/05/06 12:11:41;;;;;;;4.65;1.83;;;;;;;;;;5139248;27;20502;-88
2022/05/06 12:14:27;;;;;;;5.97;1.67;;;;;;;;;;5139376;27;20081;-88
2022/05/06 12:17:15;;;;;;;4.25;1.80;;;;;;;;;;5138862;27;20086;-87
2022/05/06 12:20:00;;;;;;;5.63;2.00;;;;;;;;;;5138733;27;20075;-88
2022/05/06 12:22:58;;;;;;;5.90;1.80;;;;;;;;;;5138461;27;20034;-87
2022/05/06 12:25:42;;;;;;;19.77;2.65;;;;;;;;;;5138983;27;20049;-88
2022/05/06 12:28:28;;;;;;;4.78;2.50;;;;;;;;;;5139102;27;20126;-88
2022/05/06 12:31:28;;;;;;;5.35;1.90;;;;;;;;;;5138877;27;20400;-88
2022/05/06 12:34:16;;;;;;;3.60;2.13;;;;;;;;;;5138476;27;20079;-87
2022/05/06 12:37:19;;;;;;;4.82;2.22;;;;;;;;;;5138509;27;20040;-88
2022/05/06 12:40:04;;;;;;;3.15;2.20;;;;;;;;;;5138469;27;20041;-88
2022/05/06 12:43:09;;;;;;;4.30;2.22;;;;;;;;;;5138822;27;20033;-88
2022/05/06 12:46:14;;;;;;;3.67;2.10;;;;;;;;;;5138503;27;20046;-92
2022/05/06 12:52:07;;;;;;;3.38;2.20;;;;;;;;;;5153985;27;20050;-88
2022/05/06 12:54:52;;;;;;;4.43;2.15;;;;;;;;;;5138749;27;20487;-87
2022/05/06 12:57:37;;;;;;;4.65;3.17;;;;;;;;;;5138708;27;20385;-87
2022/05/06 13:00:21;;;;;;;4.35;2.20;;;;;;;;;;5138717;27;20053;-87
2022/05/06 13:03:06;;;;;;;6.53;2.50;;;;;;;;;;5138064;27;20073;-87
2022/05/06 13:05:51;;;;;;;4.70;2.40;;;;;;;;;;5138584;27;20047;-88
2022/05/06 13:08:38;;;;;;;4.72;1.77;;;;;;;;;;5138790;27;20037;-88
2022/05/06 13:11:26;;;;;;;4.72;2.42;;;;;;;;;;5138763;27;20083;-88
2022/05/06 13:14:13;;;;;;;4.43;2.13;;;;;;;;;;5138293;27;20397;-88
2022/05/06 13:17:00;;;;;;;3.13;2.03;;;;;;;;;;5138432;27;20034;-91
2022/05/06 13:19:45;;;;;;;4.50;2.55;;;;;;;;;;5154454;27;20131;-87
2022/05/06 13:22:30;;;;;;;5.05;2.45;;;;;;;;;;5124075;27;20394;-87
2022/05/06 13:25:23;;;;;;;4.80;2.17;;;;;;;;;;5137964;27;20079;-88
2022/05/06 13:28:10;;;;;;;5.47;2.90;;;;;;;;;;5137870;27;20111;-87
2022/05/06 13:30:55;;;;;;;5.22;3.05;;;;;;;;;;5124419;27;20084;-88
2022/05/06 13:33:40;;;;;;;5.45;3.50;;;;;;;;;;5138422;27;20449;-88
2022/05/06 13:36:25;;;;;;;5.70;3.50;;;;;;;;;;5141860;27;20034;-89
2022/05/06 13:39:11;;;;;;;4.10;3.33;;;;;;;;;;5141717;27;20126;-87
2022/05/06 13:42:01;;;;;;;4.85;3.20;;;;;;;;;;5142287;27;20038;-89
2022/05/06 13:44:46;;;;;;;6.50;2.92;;;;;;;;;;5128171;27;20046;-89
2022/05/06 13:47:36;;;;;;;5.07;2.70;;;;;;;;;;5142363;27;20034;-88
2022/05/06 13:50:23;;;;;;;6.20;2.85;;;;;;;;;;5141669;27;20083;-89
2022/05/06 13:53:09;;;;;;;5.18;3.03;;;;;;;;;;5141951;27;20070;-89
2022/05/06 13:59:04;;;;;;;7.60;3.67;;;;;;;;;;5157760;27;20086;-88
2022/05/06 14:01:49;;;;;;;8.45;3.65;;;;;;;;;;5141844;27;20038;-88
2022/05/06 14:04:35;;;;;;;6.80;3.97;;;;;;;;;;5141660;27;20084;-88
2022/05/06 14:07:20;;;;;;;5.35;2.67;;;;;;;;;;5141302;27;20493;-88
2022/05/06 14:10:05;;;;;;;4.82;2.22;;;;;;;;;;5141365;27;20038;-90
2022/05/06 14:12:50;;;;;;;5.45;2.70;;;;;;;;;;5141734;27;20398;-90
2022/05/06 14:15:37;;;;;;;5.88;2.33;;;;;;;;;;5141494;27;20038;-89
2022/05/06 14:18:22;;;;;;;8.85;3.47;;;;;;;;;;5126567;27;20042;-87
2022/05/06 14:21:07;;;;;;;5.32;2.60;;;;;;;;;;5126307;27;20460;-88
2022/05/06 14:23:51;;;;;;;7.97;2.58;;;;;;;;;;5141237;27;20130;-87
2022/05/06 14:26:36;;;;;;;4.88;2.60;;;;;;;;;;5141012;27;20030;-88
2022/05/06 14:29:21;;;;;;;9.52;4.05;;;;;;;;;;5140091;27;20050;-87
2022/05/06 14:32:06;;;;;;;7.63;5.18;;;;;;;;;;5140831;27;20053;-87
2022/05/06 14:35:15;;;;;;;10.95;5.95;;;;;;;;;;5140913;27;20038;-89
2022/05/06 14:38:03;;;;;;;9.43;5.35;;;;;;;;;;5156723;27;20126;-88
2022/05/06 14:40:47;;;;;;;9.23;4.70;;;;;;;;;;5140872;27;20034;-87
2022/05/06 14:43:32;;;;;;;8.95;5.40;;;;;;;;;;5126047;27;20053;-86
2022/05/06 14:46:20;;;;;;;10.45;5.65;;;;;;;;;;5139135;27;20390;-87
2022/05/06 14:49:07;;;;;;;9.52;5.80;;;;;;;;;;5140528;27;20113;-87
2022/05/06 14:51:51;;;;;;;9.30;5.10;;;;;;;;;;5140590;27;20038;-87
2022/05/06 14:54:40;;;;;;;14.60;5.90;;;;;;;;;;5140738;27;20038;-88
2022/05/06 14:57:25;;;;;;;9.40;4.72;;;;;;;;;;5140220;27;20033;-87
2022/05/06 15:00:10;;;;;;;8.45;5.13;;;;;;;;;;5140680;27;20086;-87
2022/05/06 15:02:55;;;;;;;9.85;5.20;;;;;;;;;;5140430;27;20033;-87
2022/05/06 15:05:39;;;;;;;8.15;5.05;;;;;;;;;;5140573;27;20079;-86
2022/05/06 15:08:24;;;;;;;9.98;5.30;;;;;;;;;;5139931;27;20052;-86
2022/05/06 15:11:14;;;;;;;8.30;6.22;;;;;;;;;;5125854;27;20041;-86
2022/05/06 15:14:01;;;;;;;12.80;6.75;;;;;;;;;;5156331;27;20394;-87
2022/05/06 15:16:51;;;;;;;8.85;6.43;;;;;;;;;;5140387;27;20038;-89
2022/05/06 15:19:39;;;;;;;11.68;6.05;;;;;;;;;;5139845;27;20038;-87
2022/05/06 15:22:26;;;;;;;9.20;6.57;;;;;;;;;;5139778;27;20034;-87
2022/05/06 15:25:13;;;;;;;10.73;7.47;;;;;;;;;;5140195;27;20091;-86
2022/05/06 15:27:58;;;;;;;8.63;6.63;;;;;;;;;;5139832;27;20061;-87
2022/05/06 15:30:43;;;;;;;11.07;7.00;;;;;;;;;;5139843;27;20037;-88
2022/05/06 15:33:28;;;;;;;10.05;6.75;;;;;;;;;;5155092;27;20455;-87
2022/05/06 15:36:15;;;;;;;10.65;7.53;;;;;;;;;;5155659;27;20156;-87
2022/05/06 15:39:03;;;;;;;11.60;7.43;;;;;;;;;;5125400;27;20046;-87
2022/05/06 15:41:49;;;;;;;13.23;9.27;;;;;;;;;;5139748;27;20530;-87
2022/05/06 15:44:37;;;;;;;12.05;7.60;;;;;;;;;;5139018;27;20121;-87
2022/05/06 15:47:23;;;;;;;10.75;7.70;;;;;;;;;;5139155;27;20113;-90
2022/05/06 15:50:09;;;;;;;13.57;8.20;;;;;;;;;;5139489;27;20496;-88
2022/05/06 15:52:53;;;;;;;13.63;9.93;;;;;;;;;;5139381;27;20079;-87
2022/05/06 15:55:41;;;;;;;14.43;8.93;;;;;;;;;;5139020;27;20076;-87
2022/05/06 15:58:34;;;;;;;12.77;8.32;;;;;;;;;;5138874;27;20038;-88
2022/05/06 16:01:23;;;;;;;20.83;13.23;;;;;;;;;;5125134;27;20122;-90
2022/05/06 16:04:10;;;;;;;15.25;10.40;;;;;;;;;;5139333;27;20099;-88
2022/05/06 16:06:55;;;;;;;29.27;15.98;;;;;;;;;;5139542;27;20423;-86
2022/05/06 16:09:39;;;;;;;14.77;10.60;;;;;;;;;;5138789;27;20038;-86
2022/05/06 16:12:35;;;;;;;25.88;22.67;;;;;;;;;;5138934;27;20114;-87
2022/05/06 16:15:25;;;;;;;13.93;8.95;;;;;;;;;;5125671;27;20042;-90
2022/05/06 16:18:13;;;;;;;12.07;8.25;;;;;;;;;;5138997;27;20395;-86
2022/05/06 16:20:58;;;;;;;14.48;7.78;;;;;;;;;;5139077;27;20114;-88
2022/05/06 16:23:44;;;;;;;10.40;6.95;;;;;;;;;;5138486;27;20103;-86
2022/05/06 16:26:28;;;;;;;15.82;7.13;;;;;;;;;;5138548;27;20087;-87
2022/05/06 16:29:22;;;;;;;12.68;6.40;;;;;;;;;;5138656;27;20061;-87
2022/05/06 16:32:07;;;;;;;8.73;6.47;;;;;;;;;;5124767;27;20046;-86
2022/05/06 16:38:01;;;;;;;12.98;6.78;;;;;;;;;;5154406;27;20038;-87
2022/05/06 16:40:51;;;;;;;9.77;7.13;;;;;;;;;;5138306;27;20042;-87
2022/05/06 16:43:36;;;;;;;11.82;6.95;;;;;;;;;;5138249;27;20073;-87
2022/05/06 16:46:20;;;;;;;11.20;7.72;;;;;;;;;;5138704;27;20037;-87
2022/05/06 16:49:05;;;;;;;9.70;7.18;;;;;;;;;;5138647;27;20394;-88
2022/05/06 16:51:50;;;;;;;11.35;7.63;;;;;;;;;;5138451;27;20114;-87
2022/05/06 16:54:35;;;;;;;8.68;6.07;;;;;;;;;;5138228;27;20094;-87
2022/05/06 16:57:21;;;;;;;8.98;6.10;;;;;;;;;;5138533;27;20029;-90
2022/05/06 17:00:08;;;;;;;10.13;5.35;;;;;;;;;;5154252;27;20038;-87
2022/05/06 17:02:53;;;;;;;8.02;6.32;;;;;;;;;;5138768;27;20073;-86
2022/05/06 17:05:38;;;;;;;13.35;7.63;;;;;;;;;;5138186;27;20038;-88
2022/05/06 17:08:24;;;;;;;8.13;5.70;;;;;;;;;;5138556;27;20501;-87
2022/05/06 17:11:12;;;;;;;8.65;6.00;;;;;;;;;;5142584;27;20501;-88
2022/05/06 17:13:59;;;;;;;9.73;6.20;;;;;;;;;;5142310;27;20055;-87
2022/05/06 17:16:46;;;;;;;9.75;6.88;;;;;;;;;;5142246;27;20037;-87
2022/05/06 17:19:31;;;;;;;8.00;5.95;;;;;;;;;;5142207;27;20489;-88
2022/05/06 17:22:17;;;;;;;8.07;5.75;;;;;;;;;;5142497;27;20402;-87
2022/05/06 17:25:10;;;;;;;13.63;7.63;;;;;;;;;;5142330;27;20041;-89